createdAt,value
2022-12-04T00:00:14.858Z,101396.32
2022-12-04T00:03:06.808Z,101398.95
2022-12-04T00:05:38.615Z,101398.95
2022-12-04T00:08:10.545Z,101403.68
2022-12-04T00:10:45.753Z,101400.33
2022-12-04T00:13:19.365Z,101395.98
2022-12-04T00:15:51.194Z,101395.20
2022-12-04T00:18:22.856Z,101394.21
2022-12-04T00:20:54.793Z,101394.05
2022-12-04T00:23:26.529Z,101397.82
2022-12-04T00:26:04.387Z,101397.45
2022-12-04T00:28:36.886Z,101400.34
2022-12-04T00:31:10.642Z,101397.25
2022-12-04T00:33:42.633Z,101395.22
2022-12-04T00:36:16.491Z,101395.90
2022-12-04T00:38:48.361Z,101393.11
2022-12-04T00:41:23.189Z,101391.55
2022-12-04T00:43:55.145Z,101388.38
2022-12-04T00:46:27.205Z,101390.45
2022-12-04T00:49:01.962Z,101383.48
2022-12-04T00:51:33.628Z,101384.64
2022-12-04T00:54:05.654Z,101381.85
2022-12-04T00:56:37.500Z,101375.91
2022-12-04T00:59:09.162Z,101381.41
2022-12-04T01:01:40.897Z,101384.52
2022-12-04T01:04:12.817Z,101380.29
2022-12-04T01:06:44.631Z,101383.59
2022-12-04T01:09:16.298Z,101376.88
2022-12-04T01:11:48.189Z,101378.85
2022-12-04T01:14:19.832Z,101380.52
2022-12-04T01:16:51.673Z,101375.56
2022-12-04T01:19:23.376Z,101373.64
2022-12-04T01:21:55.243Z,101374.10
2022-12-04T01:24:26.861Z,101374.52
2022-12-04T01:26:58.650Z,101376.09
2022-12-04T01:29:30.333Z,101373.88
2022-12-04T01:32:02.334Z,101372.46
2022-12-04T01:34:34.091Z,101370.26
2022-12-04T01:37:05.880Z,101370.31
2022-12-04T01:39:39.849Z,101370.25
2022-12-04T01:42:14.523Z,101364.73
2022-12-04T01:45:00.619Z,101363.41
2022-12-04T01:47:32.474Z,101364.05
2022-12-04T01:50:12.926Z,101357.23
2022-12-04T01:52:44.860Z,101356.89
2022-12-04T01:55:16.498Z,101356.70
2022-12-04T01:57:48.413Z,101359.55
2022-12-04T02:00:22.515Z,101360.30
2022-12-04T02:02:54.225Z,101358.61
2022-12-04T02:05:29.753Z,101356.03
2022-12-04T02:08:05.988Z,101356.91
2022-12-04T02:10:48.876Z,101353.28
2022-12-04T02:13:27.587Z,101353.65
2022-12-04T02:16:09.635Z,101350.16
2022-12-04T02:18:55.056Z,101347.45
2022-12-04T02:21:33.603Z,101346.75
2022-12-04T02:24:28.619Z,101343.86
2022-12-04T02:27:03.711Z,101342.89
2022-12-04T02:29:42.348Z,101339.92
2022-12-04T02:32:23.809Z,101341.82
2022-12-04T02:35:01.008Z,101343.27
2022-12-04T02:37:36.977Z,101340.48
2022-12-04T02:40:12.391Z,101335.84
2022-12-04T02:42:46.421Z,101335.77
2022-12-04T02:45:21.714Z,101338.30
2022-12-04T02:47:55.918Z,101337.60
2022-12-04T02:50:30.160Z,101339.30
2022-12-04T02:53:06.567Z,101341.83
2022-12-04T02:55:43.544Z,101336.82
2022-12-04T02:58:18.631Z,101333.45
2022-12-04T03:00:51.840Z,101330.48
2022-12-04T03:03:30.265Z,101325.40
2022-12-04T03:06:06.330Z,101316.20
2022-12-04T03:08:44.265Z,101311.37
2022-12-04T03:11:16.218Z,101313.27
2022-12-04T03:13:52.675Z,101315.95
2022-12-04T03:16:28.926Z,101312.14
2022-12-04T03:19:04.892Z,101318.46
2022-12-04T03:21:41.484Z,101315.12
2022-12-04T03:24:18.877Z,101316.53
2022-12-04T03:26:58.158Z,101316.53
2022-12-04T03:29:36.346Z,101312.73
2022-12-04T03:32:13.757Z,101309.94
2022-12-04T03:34:54.685Z,101312.02
2022-12-04T03:37:33.043Z,101308.66
2022-12-04T03:40:13.878Z,101309.38
2022-12-04T03:42:51.881Z,101310.55
2022-12-04T03:45:27.997Z,101309.04
2022-12-04T03:48:04.165Z,101307.24
2022-12-04T03:50:40.056Z,101303.17
2022-12-04T03:53:20.023Z,101298.69
2022-12-04T03:55:57.323Z,101296.15
2022-12-04T03:58:33.215Z,101290.06
2022-12-04T04:01:08.750Z,101289.45
2022-12-04T04:03:44.416Z,101292.61
2022-12-04T04:06:20.042Z,101292.17
2022-12-04T04:08:57.965Z,101292.21
2022-12-04T04:11:33.935Z,101289.60
2022-12-04T04:14:27.416Z,101294.94
2022-12-04T04:17:25.287Z,101292.33
2022-12-04T04:20:22.387Z,101296.36
2022-12-04T04:23:15.094Z,101293.02
2022-12-04T04:25:47.875Z,101289.52
2022-12-04T04:28:33.617Z,101289.26
2022-12-04T04:31:26.351Z,101288.71
2022-12-04T04:34:07.606Z,101287.28
2022-12-04T04:36:41.624Z,101289.21
2022-12-04T04:39:23.345Z,101290.55
2022-12-04T04:42:00.504Z,101289.59
2022-12-04T04:44:39.466Z,101292.44
2022-12-04T04:47:16.831Z,101294.77
2022-12-04T04:49:51.038Z,101294.98
2022-12-04T04:52:27.540Z,101290.54
2022-12-04T04:55:00.552Z,101288.39
2022-12-04T04:57:35.974Z,101292.63
2022-12-04T05:00:13.766Z,101299.81
2022-12-04T05:02:46.340Z,101299.17
2022-12-04T05:05:18.524Z,101299.60
2022-12-04T05:07:50.397Z,101299.42
2022-12-04T05:10:23.695Z,101301.93
2022-12-04T05:12:55.647Z,101299.27
2022-12-04T05:15:27.266Z,101301.22
2022-12-04T05:17:59.080Z,101300.77
2022-12-04T05:20:30.918Z,101297.38
2022-12-04T05:23:02.868Z,101296.30
2022-12-04T05:25:34.680Z,101290.52
2022-12-04T05:28:06.824Z,101283.05
2022-12-04T05:30:38.480Z,101282.67
2022-12-04T05:33:10.726Z,101283.11
2022-12-04T05:35:42.494Z,101287.06
2022-12-04T05:38:14.170Z,101288.89
2022-12-04T05:40:45.957Z,101283.50
2022-12-04T05:43:17.712Z,101285.36
2022-12-04T05:45:50.577Z,101289.34
2022-12-04T05:48:22.312Z,101286.46
2022-12-04T05:50:53.959Z,101288.79
2022-12-04T05:53:25.726Z,101289.04
2022-12-04T05:56:02.283Z,101288.73
2022-12-04T05:58:37.042Z,101288.93
2022-12-04T06:01:14.690Z,101283.35
2022-12-04T06:03:46.988Z,101283.84
2022-12-04T06:06:23.246Z,101282.77
2022-12-04T06:08:56.742Z,101289.48
2022-12-04T06:11:30.315Z,101280.13
2022-12-04T06:14:04.563Z,101283.38
2022-12-04T06:16:38.243Z,101281.54
2022-12-04T06:19:12.750Z,101283.80
2022-12-04T06:21:46.009Z,101283.80
2022-12-04T06:24:19.984Z,101280.23
2022-12-04T06:27:25.560Z,101279.85
2022-12-04T06:29:44.013Z,101278.28
2022-12-04T06:32:21.128Z,101277.27
2022-12-04T06:34:54.997Z,101279.31
2022-12-04T06:37:27.675Z,101287.14
2022-12-04T06:39:59.663Z,101290.90
2022-12-04T06:42:31.497Z,101289.38
2022-12-04T06:45:03.122Z,101292.84
2022-12-04T06:47:34.918Z,101292.25
2022-12-04T06:50:12.198Z,101291.45
2022-12-04T06:52:43.805Z,101296.08
2022-12-04T06:55:15.996Z,101298.16
2022-12-04T06:57:47.719Z,101296.13
2022-12-04T07:00:20.565Z,101299.20
2022-12-04T07:02:52.335Z,101296.85
2022-12-04T07:05:24.073Z,101304.35
2022-12-04T07:07:58.160Z,101302.77
2022-12-04T07:10:29.853Z,101307.88
2022-12-04T07:13:01.472Z,101307.25
2022-12-04T07:15:34.015Z,101308.15
2022-12-04T07:18:06.189Z,101303.11
2022-12-04T07:20:40.729Z,101310.75
2022-12-04T07:23:14.632Z,101309.10
2022-12-04T07:25:48.793Z,101309.77
2022-12-04T07:28:25.998Z,101310.63
2022-12-04T07:31:00.795Z,101308.64
2022-12-04T07:33:39.940Z,101305.56
2022-12-04T07:36:17.598Z,101302.55
2022-12-04T07:38:49.632Z,101298.36
2022-12-04T07:41:23.393Z,101299.64
2022-12-04T07:43:56.142Z,101301.89
2022-12-04T07:46:29.485Z,101302.23
2022-12-04T07:49:03.074Z,101305.87
2022-12-04T07:51:38.836Z,101306.14
2022-12-04T07:54:13.641Z,101302.43
2022-12-04T07:56:47.211Z,101300.59
2022-12-04T07:59:19.189Z,101297.48
2022-12-04T08:01:54.102Z,101290.09
2022-12-04T08:04:25.998Z,101286.77
2022-12-04T08:06:59.689Z,101285.70
2022-12-04T08:09:36.023Z,101282.37
2022-12-04T08:12:08.502Z,101284.64
2022-12-04T08:14:40.397Z,101285.50
2022-12-04T08:17:12.136Z,101283.19
2022-12-04T08:19:43.874Z,101285.89
2022-12-04T08:22:19.136Z,101284.39
2022-12-04T08:24:53.628Z,101286.95
2022-12-04T08:27:25.304Z,101288.79
2022-12-04T08:29:57.465Z,101288.77
2022-12-04T08:32:29.380Z,101290.48
2022-12-04T08:35:02.136Z,101283.83
2022-12-04T08:37:35.783Z,101283.36
2022-12-04T08:40:14.577Z,101287.34
2022-12-04T08:42:46.410Z,101286.00
2022-12-04T08:45:25.499Z,101282.58
2022-12-04T08:47:59.637Z,101290.67
2022-12-04T08:50:31.350Z,101295.40
2022-12-04T08:53:03.184Z,101300.13
2022-12-04T08:55:36.006Z,101303.93
2022-12-04T08:58:10.181Z,101304.27
2022-12-04T09:00:42.450Z,101309.14
2022-12-04T09:03:30.579Z,101313.59
2022-12-04T09:06:04.764Z,101315.45
2022-12-04T09:08:37.410Z,101317.55
2022-12-04T09:11:12.128Z,101322.13
2022-12-04T09:13:45.005Z,101317.73
2022-12-04T09:16:19.726Z,101322.66
2022-12-04T09:18:54.856Z,101321.63
2022-12-04T09:21:27.779Z,101319.33
2022-12-04T09:24:02.183Z,101322.48
2022-12-04T09:26:40.509Z,101324.31
2022-12-04T09:29:14.216Z,101320.30
2022-12-04T09:31:46.325Z,101319.54
2022-12-04T09:34:18.665Z,101322.11
2022-12-04T09:36:51.508Z,101322.60
2022-12-04T09:39:25.321Z,101323.08
2022-12-04T09:42:13.000Z,101322.20
2022-12-04T09:44:52.508Z,101317.73
2022-12-04T09:47:29.829Z,101325.08
2022-12-04T09:50:16.214Z,101321.38
2022-12-04T09:53:00.142Z,101321.74
2022-12-04T09:55:37.912Z,101313.47
2022-12-04T09:58:19.365Z,101307.19
2022-12-04T10:00:54.985Z,101302.56
2022-12-04T10:03:29.753Z,101296.81
2022-12-04T10:06:12.542Z,101294.00
2022-12-04T10:08:47.702Z,101300.30
2022-12-04T10:11:32.215Z,101297.77
2022-12-04T10:14:20.163Z,101291.19
2022-12-04T10:17:19.664Z,101286.34
2022-12-04T10:20:05.269Z,101280.85
2022-12-04T10:22:52.411Z,101273.70
2022-12-04T10:25:26.486Z,101278.58
2022-12-04T10:28:05.864Z,101276.23
2022-12-04T10:30:45.425Z,101276.20
2022-12-04T10:33:21.425Z,101271.04
2022-12-04T10:35:55.148Z,101267.83
2022-12-04T10:38:38.121Z,101272.34
2022-12-04T10:41:25.571Z,101271.55
2022-12-04T10:44:00.862Z,101269.20
2022-12-04T10:46:43.199Z,101263.18
2022-12-04T10:49:22.578Z,101255.55
2022-12-04T10:51:55.159Z,101256.45
2022-12-04T10:54:34.967Z,101254.46
2022-12-04T10:57:14.833Z,101255.50
2022-12-04T10:59:58.421Z,101255.50
2022-12-04T11:02:35.848Z,101256.45
2022-12-04T11:05:24.883Z,101251.13
2022-12-04T11:08:01.004Z,101246.34
2022-12-04T11:10:43.549Z,101247.85
2022-12-04T11:13:21.535Z,101255.90
2022-12-04T11:15:58.275Z,101250.59
2022-12-04T11:18:32.834Z,101251.67
2022-12-04T11:21:07.029Z,101258.05
2022-12-04T11:23:48.287Z,101255.90
2022-12-04T11:26:30.819Z,101255.37
2022-12-04T11:29:09.537Z,101256.71
2022-12-04T11:31:42.489Z,101253.41
2022-12-04T11:34:22.344Z,101251.79
2022-12-04T11:36:58.088Z,101249.66
2022-12-04T11:39:47.369Z,101250.10
2022-12-04T11:42:24.979Z,101250.08
2022-12-04T11:44:58.845Z,101252.39
2022-12-04T11:47:34.718Z,101253.48
2022-12-04T11:50:25.187Z,101254.86
2022-12-04T11:53:33.290Z,101252.44
2022-12-04T11:56:24.126Z,101253.64
2022-12-04T11:59:30.652Z,101254.23
2022-12-04T12:02:14.488Z,101247.83
2022-12-04T12:05:26.485Z,101248.55
2022-12-04T12:08:06.800Z,101242.05
2022-12-04T12:10:48.120Z,101233.11
2022-12-04T12:13:37.449Z,101229.80
2022-12-04T12:16:19.208Z,101224.85
2022-12-04T12:19:13.938Z,101219.95
2022-12-04T12:21:55.283Z,101220.68
2022-12-04T12:24:32.924Z,101217.15
2022-12-04T12:27:26.214Z,101218.73
2022-12-04T12:30:04.507Z,101217.13
2022-12-04T12:32:55.963Z,101212.42
2022-12-04T12:35:34.543Z,101210.83
2022-12-04T12:38:11.856Z,101206.42
2022-12-04T12:40:48.898Z,101202.55
2022-12-04T12:43:25.825Z,101200.96
2022-12-04T12:46:03.105Z,101204.63
2022-12-04T12:48:46.458Z,101203.16
2022-12-04T12:51:34.677Z,101200.17
2022-12-04T12:54:19.290Z,101198.84
2022-12-04T12:56:57.032Z,101197.58
2022-12-04T12:59:30.270Z,101200.52
2022-12-04T13:02:07.746Z,101208.48
2022-12-04T13:04:43.008Z,101211.22
2022-12-04T13:07:30.567Z,101210.23
2022-12-04T13:10:13.657Z,101203.52
2022-12-04T13:12:50.431Z,101205.95
2022-12-04T13:15:31.166Z,101199.73
2022-12-04T13:18:11.787Z,101197.92
2022-12-04T13:20:53.653Z,101203.75
2022-12-04T13:23:45.152Z,101199.33
2022-12-04T13:26:30.896Z,101204.33
2022-12-04T13:29:13.711Z,101204.52
2022-12-04T13:31:53.967Z,101201.05
2022-12-04T13:34:45.329Z,101196.16
2022-12-04T13:37:39.861Z,101196.25
2022-12-04T13:40:31.737Z,101193.42
2022-12-04T13:43:30.399Z,101187.01
2022-12-04T13:46:04.276Z,101186.36
2022-12-04T13:48:40.053Z,101183.36
2022-12-04T13:51:36.233Z,101182.98
2022-12-04T13:57:23.784Z,101184.44
2022-12-04T14:00:13.657Z,101182.26
2022-12-04T14:02:53.029Z,101179.11
2022-12-04T14:05:41.231Z,101177.23
2022-12-04T14:08:25.230Z,101174.85
2022-12-04T14:11:07.427Z,101183.36
2022-12-04T14:13:49.013Z,101183.96
2022-12-04T14:16:25.492Z,101186.17
2022-12-04T14:19:00.598Z,101191.39
2022-12-04T14:21:43.403Z,101187.05
2022-12-04T14:24:30.576Z,101182.23
2022-12-04T14:27:11.585Z,101176.34
2022-12-04T14:29:50.935Z,101175.98
2022-12-04T14:32:26.363Z,101179.19
2022-12-04T14:34:59.594Z,101179.50
2022-12-04T14:37:37.214Z,101180.47
2022-12-04T14:40:24.802Z,101187.35
2022-12-04T14:42:57.093Z,101192.63
2022-12-04T14:45:36.372Z,101191.88
2022-12-04T14:48:24.519Z,101194.17
2022-12-04T14:51:05.271Z,101195.90
2022-12-04T14:53:47.164Z,101194.23
2022-12-04T14:56:38.136Z,101197.09
2022-12-04T14:59:17.447Z,101196.13
2022-12-04T15:01:51.962Z,101205.41
2022-12-04T15:04:27.344Z,101209.33
2022-12-04T15:07:00.716Z,101206.91
2022-12-04T15:10:04.998Z,101210.79
2022-12-04T15:12:47.418Z,101205.91
2022-12-04T15:15:25.150Z,101205.77
2022-12-04T15:18:01.720Z,101207.36
2022-12-04T15:20:39.349Z,101205.35
2022-12-04T15:23:16.741Z,101205.90
2022-12-04T15:25:52.064Z,101208.27
2022-12-04T15:28:29.881Z,101212.50
2022-12-04T15:31:04.812Z,101213.63
2022-12-04T15:33:39.825Z,101212.66
2022-12-04T15:36:30.618Z,101215.77
2022-12-04T15:39:03.096Z,101217.17
2022-12-04T15:41:37.087Z,101218.29
2022-12-04T15:44:28.592Z,101215.40
2022-12-04T15:47:03.542Z,101215.02
2022-12-04T15:49:35.826Z,101216.70
2022-12-04T15:52:15.467Z,101214.73
2022-12-04T15:54:53.531Z,101209.63
2022-12-04T15:57:29.523Z,101211.66
2022-12-04T16:00:05.214Z,101214.36
2022-12-04T16:02:41.397Z,101214.23
2022-12-04T16:05:28.019Z,101208.77
2022-12-04T16:08:02.051Z,101207.64
2022-12-04T16:10:36.351Z,101209.40
2022-12-04T16:13:08.409Z,101206.02
2022-12-04T16:15:43.885Z,101210.71
2022-12-04T16:18:16.616Z,101202.65
2022-12-04T16:20:48.392Z,101201.09
2022-12-04T16:23:20.185Z,101201.69
2022-12-04T16:25:53.676Z,101199.61
2022-12-04T16:28:25.757Z,101200.35
2022-12-04T16:30:57.530Z,101204.59
2022-12-04T16:33:29.423Z,101211.24
2022-12-04T16:36:02.492Z,101204.27
2022-12-04T16:38:34.278Z,101200.94
2022-12-04T16:41:07.063Z,101200.19
2022-12-04T16:43:38.771Z,101200.09
2022-12-04T16:46:15.738Z,101199.92
2022-12-04T16:48:47.440Z,101201.59
2022-12-04T16:51:22.164Z,101209.31
2022-12-04T16:53:55.389Z,101209.73
2022-12-04T16:56:27.129Z,101210.97
2022-12-04T16:58:58.796Z,101208.09
2022-12-04T17:01:34.857Z,101207.39
2022-12-04T17:04:06.900Z,101213.66
2022-12-04T17:06:38.732Z,101214.35
2022-12-04T17:09:10.608Z,101208.51
2022-12-04T17:11:43.010Z,101206.93
2022-12-04T17:14:15.052Z,101211.77
2022-12-04T17:16:47.509Z,101221.74
2022-12-04T17:19:19.695Z,101220.84
2022-12-04T17:21:51.681Z,101213.59
2022-12-04T17:24:23.339Z,101212.26
2022-12-04T17:26:55.003Z,101208.02
2022-12-04T17:29:26.707Z,101216.77
2022-12-04T17:31:58.526Z,101211.20
2022-12-04T17:34:30.220Z,101214.45
2022-12-04T17:37:02.168Z,101214.89
2022-12-04T17:39:33.848Z,101213.65
2022-12-04T17:42:05.665Z,101217.04
2022-12-04T17:44:37.358Z,101207.39
2022-12-04T17:47:09.386Z,101207.29
2022-12-04T17:49:41.049Z,101198.64
2022-12-04T17:52:12.790Z,101204.17
2022-12-04T17:54:44.461Z,101208.88
2022-12-04T17:57:16.976Z,101205.40
2022-12-04T17:59:48.888Z,101205.77
2022-12-04T18:02:20.899Z,101208.94
2022-12-04T18:04:54.054Z,101206.80
2022-12-04T18:07:25.929Z,101203.21
2022-12-04T18:09:57.834Z,101203.75
2022-12-04T18:12:29.656Z,101204.39
2022-12-04T18:15:01.406Z,101200.03
2022-12-04T18:17:33.113Z,101204.38
2022-12-04T18:20:05.887Z,101201.11
2022-12-04T18:22:43.338Z,101202.14
2022-12-04T18:25:15.108Z,101205.14
2022-12-04T18:27:46.938Z,101206.87
2022-12-04T18:30:28.848Z,101208.68
2022-12-04T18:33:00.897Z,101212.16
2022-12-04T18:35:32.563Z,101220.20
2022-12-04T18:38:04.244Z,101213.02
2022-12-04T18:40:37.249Z,101216.66
2022-12-04T18:43:08.969Z,101216.45
2022-12-04T18:45:43.836Z,101212.59
2022-12-04T18:48:16.628Z,101212.16
2022-12-04T18:50:48.329Z,101213.51
2022-12-04T18:53:20.014Z,101226.27
2022-12-04T18:55:51.678Z,101218.48
2022-12-04T18:58:23.989Z,101218.08
2022-12-04T19:00:55.622Z,101223.64
2022-12-04T19:03:27.342Z,101217.42
2022-12-04T19:05:59.111Z,101222.79
2022-12-04T19:08:33.770Z,101224.87
2022-12-04T19:11:12.687Z,101226.39
2022-12-04T19:13:44.623Z,101219.39
2022-12-04T19:16:18.508Z,101214.48
2022-12-04T19:18:50.384Z,101210.66
2022-12-04T19:21:22.538Z,101207.40
2022-12-04T19:23:58.270Z,101210.29
2022-12-04T19:26:31.018Z,101211.36
2022-12-04T19:29:03.591Z,101215.38
2022-12-04T19:31:36.808Z,101220.04
2022-12-04T19:34:08.874Z,101228.90
2022-12-04T19:36:42.701Z,101239.36
2022-12-04T19:39:14.691Z,101239.04
2022-12-04T19:41:47.393Z,101242.67
2022-12-04T19:47:12.835Z,101250.67
2022-12-04T19:49:44.508Z,101245.95
2022-12-04T19:52:16.158Z,101243.70
2022-12-04T19:54:48.530Z,101245.57
2022-12-04T19:57:20.129Z,101244.12
2022-12-04T19:59:51.920Z,101243.85
2022-12-04T20:02:23.564Z,101242.20
2022-12-04T20:04:55.347Z,101240.86
2022-12-04T20:07:26.962Z,101243.70
2022-12-04T20:09:58.844Z,101238.08
2022-12-04T20:12:30.612Z,101237.20
2022-12-04T20:15:02.262Z,101240.27
2022-12-04T20:17:33.898Z,101244.45
2022-12-04T20:20:07.006Z,101248.36
2022-12-04T20:22:38.957Z,101246.53
2022-12-04T20:25:11.937Z,101244.08
2022-12-04T20:27:43.554Z,101235.92
2022-12-04T20:30:19.550Z,101231.48
2022-12-04T20:32:51.438Z,101226.33
2022-12-04T20:35:23.140Z,101225.79
2022-12-04T20:37:54.804Z,101217.79
2022-12-04T20:40:32.854Z,101207.50
2022-12-04T20:43:04.613Z,101206.75
2022-12-04T20:45:36.373Z,101206.16
2022-12-04T20:48:09.184Z,101203.74
2022-12-04T20:50:46.003Z,101199.46
2022-12-04T20:53:17.895Z,101202.89
2022-12-04T20:55:56.896Z,101201.50
2022-12-04T20:58:29.942Z,101201.92
2022-12-04T21:01:13.187Z,101204.17
2022-12-04T21:03:45.721Z,101199.61
2022-12-04T21:06:20.194Z,101196.49
2022-12-04T21:08:56.634Z,101189.74
2022-12-04T21:11:31.571Z,101188.52
2022-12-04T21:14:21.986Z,101185.83
2022-12-04T21:16:54.220Z,101182.02
2022-12-04T21:19:26.730Z,101175.80
2022-12-04T21:21:58.356Z,101178.86
2022-12-04T21:24:36.271Z,101184.45
2022-12-04T21:27:09.241Z,101184.76
2022-12-04T21:29:41.257Z,101188.90
2022-12-04T21:32:12.966Z,101192.70
2022-12-04T21:34:44.780Z,101193.19
2022-12-04T21:37:16.907Z,101192.91
2022-12-04T21:39:49.192Z,101194.15
2022-12-04T21:42:33.976Z,101192.44
2022-12-04T21:45:08.998Z,101192.70
2022-12-04T21:47:40.710Z,101186.91
2022-12-04T21:50:13.565Z,101188.42
2022-12-04T21:52:45.327Z,101189.06
2022-12-04T21:55:17.292Z,101189.39
2022-12-04T21:57:49.031Z,101194.00
2022-12-04T22:00:24.676Z,101196.98
2022-12-04T22:02:56.391Z,101196.50
2022-12-04T22:05:28.168Z,101197.42
2022-12-04T22:08:00.006Z,101195.92
2022-12-04T22:10:32.126Z,101198.17
2022-12-04T22:13:03.983Z,101193.56
2022-12-04T22:15:39.365Z,101192.76
2022-12-04T22:18:12.593Z,101192.70
2022-12-04T22:20:44.758Z,101192.33
2022-12-04T22:23:16.736Z,101180.38
2022-12-04T22:25:48.938Z,101184.98
2022-12-04T22:28:20.857Z,101185.25
2022-12-04T22:30:52.529Z,101178.60
2022-12-04T22:33:24.310Z,101180.80
2022-12-04T22:35:55.931Z,101180.80
2022-12-04T22:38:27.577Z,101179.84
2022-12-04T22:41:01.417Z,101178.93
2022-12-04T22:43:39.172Z,101180.64
2022-12-04T22:46:14.198Z,101177.59
2022-12-04T22:48:46.432Z,101178.13
2022-12-04T22:51:20.811Z,101172.64
2022-12-04T22:53:53.993Z,101174.70
2022-12-04T22:56:27.572Z,101171.00
2022-12-04T22:59:00.216Z,101161.73
2022-12-04T23:01:34.094Z,101160.59
2022-12-04T23:04:06.207Z,101152.88
2022-12-04T23:06:38.233Z,101149.83
2022-12-04T23:09:14.078Z,101146.39
2022-12-04T23:11:45.968Z,101147.80
2022-12-04T23:14:17.726Z,101150.09
2022-12-04T23:16:50.124Z,101144.89
2022-12-04T23:19:22.323Z,101150.95
2022-12-04T23:21:57.148Z,101150.95
2022-12-04T23:24:29.497Z,101157.34
2022-12-04T23:27:01.111Z,101155.55
2022-12-04T23:32:24.392Z,101159.33
2022-12-04T23:34:57.683Z,101160.23
2022-12-04T23:37:29.880Z,101165.20
2022-12-04T23:40:01.572Z,101166.23
2022-12-04T23:42:34.583Z,101161.94
2022-12-04T23:45:07.863Z,101163.81
2022-12-04T23:47:39.706Z,101157.05
2022-12-04T23:50:15.559Z,101156.79
2022-12-04T23:52:52.926Z,101149.02
2022-12-04T23:55:25.450Z,101143.66
2022-12-04T23:57:58.396Z,101139.01
